createdAt,value
2022-08-29T07:30:22.792Z,75.53
2022-08-29T07:35:30.471Z,75.68
2022-08-29T07:40:32.441Z,74.64
2022-08-29T07:45:34.215Z,72.94
2022-08-29T07:50:36.002Z,72.13
2022-08-29T07:55:37.568Z,71.55
2022-08-29T08:00:39.143Z,69.87
2022-08-29T08:05:43.199Z,69.34
2022-08-29T08:10:46.880Z,69.04
2022-08-29T08:15:55.746Z,68.37
2022-08-29T08:20:57.386Z,66.24
2022-08-29T08:25:59.520Z,66.68
2022-08-29T08:31:05.841Z,65.57
2022-08-29T08:36:29.823Z,65.20
2022-08-29T08:41:40.435Z,64.24
2022-08-29T08:46:47.361Z,64.19
2022-08-29T08:51:57.345Z,63.01
2022-08-29T08:57:11.469Z,63.41
2022-08-29T09:02:28.235Z,61.77
2022-08-29T09:07:55.174Z,63.44
2022-08-29T09:13:21.691Z,61.48
2022-08-29T09:18:35.168Z,60.91
2022-08-29T09:23:45.905Z,60.93
2022-08-29T09:28:48.457Z,60.32
2022-08-29T09:34:12.826Z,61.02
2022-08-29T09:39:14.573Z,59.97
2022-08-29T09:44:27.610Z,60.40
2022-08-29T09:49:29.362Z,60.62
2022-08-29T09:54:31.884Z,60.21
2022-08-29T09:59:36.608Z,59.55
2022-08-29T10:04:43.559Z,58.31
2022-08-29T10:09:58.269Z,58.23
2022-08-29T10:15:04.706Z,57.56
2022-08-29T10:20:09.872Z,58.44
2022-08-29T10:25:23.504Z,57.78
2022-08-29T10:30:51.478Z,57.70
2022-08-29T10:36:03.726Z,56.93
2022-08-29T10:41:28.809Z,57.44
2022-08-29T10:46:46.245Z,55.54
2022-08-29T10:51:58.188Z,55.62
2022-08-29T10:57:02.059Z,56.19
2022-08-29T11:02:08.040Z,55.49
2022-08-29T11:07:26.627Z,54.23
2022-08-29T11:12:45.165Z,53.82
2022-08-29T11:17:56.081Z,53.90
2022-08-29T11:23:01.876Z,53.09
2022-08-29T11:28:23.725Z,52.91
2022-08-29T11:33:41.299Z,52.24
2022-08-29T11:39:11.105Z,51.73
2022-08-29T11:44:22.256Z,52.16
2022-08-29T11:49:40.863Z,51.13
2022-08-29T11:54:42.401Z,50.86
2022-08-29T11:59:44.652Z,50.42
2022-08-29T12:05:01.935Z,49.88
2022-08-29T12:10:11.248Z,50.31
2022-08-29T12:15:27.817Z,49.77
2022-08-29T12:20:44.408Z,48.97
2022-08-29T12:31:34.697Z,47.92
2022-08-29T12:37:05.552Z,47.91
2022-08-29T12:42:25.296Z,47.74
2022-08-29T12:47:41.837Z,47.55
2022-08-29T12:52:59.811Z,46.98
2022-08-29T12:58:49.685Z,47.00
2022-08-29T13:04:06.531Z,47.08
2022-08-29T13:09:09.954Z,46.49
2022-08-29T13:14:17.448Z,47.24
2022-08-29T13:19:21.495Z,46.49
2022-08-29T13:24:23.271Z,46.13
2022-08-29T13:29:38.663Z,46.29
2022-08-29T13:35:01.647Z,46.17
2022-08-29T13:40:31.228Z,46.01
2022-08-29T13:45:35.327Z,45.90
2022-08-29T13:50:36.972Z,45.56
2022-08-29T13:55:41.433Z,45.62
2022-08-29T14:00:43.720Z,44.98
2022-08-29T14:05:45.316Z,45.88
2022-08-29T14:10:46.917Z,45.32
2022-08-29T14:15:48.623Z,44.70
2022-08-29T14:20:50.248Z,44.25
2022-08-29T14:25:52.235Z,44.65
2022-08-29T14:30:53.958Z,44.70
2022-08-29T14:35:55.618Z,44.42
2022-08-29T14:40:57.327Z,44.54
2022-08-29T14:45:58.981Z,44.23
2022-08-29T14:57:59.893Z,43.50
2022-08-29T15:03:01.606Z,43.84
2022-08-29T15:08:06.529Z,44.30
2022-08-29T15:13:08.534Z,43.03
2022-08-29T15:18:23.528Z,43.27
2022-08-29T15:23:33.831Z,43.29
2022-08-29T15:28:35.384Z,43.45
2022-08-29T15:33:37.037Z,42.71
2022-08-29T15:38:38.725Z,42.38
2022-08-29T15:43:40.532Z,43.15
2022-08-29T15:48:42.142Z,43.29
2022-08-29T15:53:43.726Z,42.97
2022-08-29T15:58:45.513Z,42.90
2022-08-29T16:03:47.042Z,43.24
2022-08-29T16:08:48.591Z,43.46
2022-08-29T16:14:24.850Z,43.60
2022-08-29T16:19:20.531Z,43.19
2022-08-29T16:24:28.025Z,43.33
2022-08-29T16:29:29.671Z,43.43
2022-08-29T16:34:31.391Z,43.36
2022-08-29T16:39:32.998Z,43.44
2022-08-29T16:44:34.676Z,43.67
2022-08-29T16:49:36.239Z,43.51
2022-08-29T16:54:38.389Z,43.55
2022-08-29T16:59:39.935Z,44.47
2022-08-29T17:04:41.498Z,43.86
2022-08-29T17:09:43.008Z,43.93
2022-08-29T17:14:44.530Z,44.01
2022-08-29T17:19:48.573Z,44.44
2022-08-29T17:24:50.199Z,45.50
2022-08-29T17:29:51.739Z,44.95
2022-08-29T17:34:53.301Z,45.32
2022-08-29T17:39:54.843Z,45.22
2022-08-29T17:44:57.765Z,45.57
2022-08-29T17:49:59.893Z,46.89
2022-08-29T17:55:06.963Z,46.92
2022-08-29T18:00:09.692Z,47.81
2022-08-29T18:05:14.248Z,48.97
2022-08-29T18:10:18.593Z,49.60
2022-08-29T18:15:20.251Z,49.95
2022-08-29T18:20:25.159Z,51.02
2022-08-29T18:25:26.831Z,51.98
2022-08-29T18:30:28.452Z,52.88
2022-08-29T18:35:30.308Z,53.43
2022-08-29T18:40:33.660Z,53.46
2022-08-29T18:45:40.018Z,54.02
2022-08-29T18:50:41.601Z,54.59
2022-08-29T18:55:50.405Z,55.13
2022-08-29T19:00:54.435Z,56.43
2022-08-29T19:05:56.352Z,56.09
2022-08-29T19:11:00.050Z,56.42
2022-08-29T19:23:00.025Z,56.92
2022-08-29T19:28:02.502Z,58.18
2022-08-29T19:33:06.416Z,58.20
2022-08-29T19:38:08.358Z,59.58
2022-08-29T19:43:13.676Z,60.64
2022-08-29T19:48:15.871Z,60.43
2022-08-29T19:53:24.670Z,60.33
2022-08-29T19:58:31.898Z,60.19
2022-08-29T20:03:36.514Z,60.84
2022-08-29T20:08:41.659Z,61.01
2022-08-29T20:13:47.596Z,61.85
2022-08-29T20:18:52.514Z,63.82
2022-08-29T20:23:57.705Z,64.76
2022-08-29T20:29:01.989Z,66.21
2022-08-29T20:34:03.745Z,68.32
2022-08-29T20:39:06.665Z,69.82
2022-08-29T20:44:10.088Z,70.79
2022-08-29T20:49:13.846Z,72.41
2022-08-29T20:54:19.402Z,72.30
2022-08-29T20:59:23.572Z,72.16
2022-08-29T21:04:46.120Z,72.02
2022-08-29T21:09:50.340Z,71.57
2022-08-29T21:14:51.997Z,71.83
2022-08-29T21:19:53.565Z,72.49
2022-08-29T21:24:55.826Z,72.05
2022-08-29T21:29:57.588Z,72.51
2022-08-29T21:34:59.274Z,72.43
2022-08-29T21:40:03.934Z,72.83
2022-08-29T21:45:06.014Z,71.66
2022-08-29T21:50:08.921Z,71.80
2022-08-29T21:55:10.564Z,70.75
2022-08-29T22:00:14.280Z,68.94
2022-08-29T22:05:15.934Z,67.50
2022-08-29T22:10:21.361Z,67.04
2022-08-29T22:15:42.349Z,66.29
2022-08-29T22:20:46.673Z,64.72
2022-08-29T22:25:48.322Z,64.53
2022-08-29T22:30:49.966Z,64.29
2022-08-29T22:35:52.124Z,64.23
2022-08-29T22:40:53.680Z,64.16
2022-08-29T22:45:55.241Z,64.52
2022-08-29T22:50:58.152Z,64.56
2022-08-29T22:56:00.137Z,63.92
2022-08-29T23:01:02.139Z,63.95
2022-08-29T23:06:03.747Z,63.75
2022-08-29T23:11:05.567Z,64.26
2022-08-29T23:16:07.179Z,64.66
2022-08-29T23:21:09.126Z,64.80
2022-08-29T23:26:13.386Z,64.30
2022-08-29T23:31:18.675Z,64.53
2022-08-29T23:36:21.549Z,64.11
2022-08-29T23:41:23.979Z,64.95
2022-08-29T23:46:26.116Z,64.54
2022-08-29T23:51:27.900Z,64.55
2022-08-29T23:56:29.480Z,64.82
